KMSN

Dane County Regional-Truax Field Airport

Madison, Wisconsin, USA
METAR KMSN 210653Z AUTO 09003KT 10SM OVC070 10/07 A3016 RMK AO2 SLP217 T01000072
Observed Flight Rules
May-21 @ 06:53 UTC (28 minutes ago) Visual Flight Rules
Wind Visibility Clouds
90° at 3 knots 10 miles
  • Overcast at 7,000' AGL
Temperatures Readings
Current 10°C / 50°F
Dewpoint 7°C / 45°F
Humidity 82%
Altimeter 30.16" Hg
Pressure 1021.7 hPa
Elevation 261
METAR KMSN 210653Z AUTO 09003KT 10SM OVC070 10/07 A3016 RMK AO2 SLP217 T01000072
Observed Flight Rules
May-21 @ 06:53 UTC
(28 minutes ago)
VFR
Wind Visibility
90° at 3 knots 10 miles
Clouds
  • Overcast at 7,000' AGL
Temperature Dewpoint
10°C / 50°F 7°C / 45°F
Humidity Altimeter Pressure
82% 30.16" Hg 1021.7 hPa